Time;durP1;ratioP1;P1;durP2;ratioP2;P2;SDS_P1;SDS_P2;PMS_P1;PMS_P2;Temp;Humidity;BMP_temperature;BMP_pressure;BME280_temperature;BME280_humidity;BME280_pressure;Samples;Min_cycle;Max_cycle;Signal;HPM_P1;HPM_P2
2022/04/23 00:01:42;;;;;;;10.32;6.32;;;10.10;70.30;;;;;;5055341;28;20074;-66
2022/04/23 00:04:09;;;;;;;10.00;5.80;;;10.10;70.30;;;;;;5048792;28;20036;-66
2022/04/23 00:06:35;;;;;;;10.77;6.57;;;10.10;70.60;;;;;;5038402;28;20036;-66
2022/04/23 00:09:01;;;;;;;10.25;6.40;;;10.10;70.50;;;;;;5028823;28;20088;-66
2022/04/23 00:11:27;;;;;;;10.23;6.70;;;10.10;70.70;;;;;;5017512;28;20044;-66
2022/04/23 00:13:53;;;;;;;12.47;5.83;;;10.10;70.60;;;;;;5030581;28;20055;-66
2022/04/23 00:16:19;;;;;;;12.73;6.32;;;10.10;70.70;;;;;;5044200;28;20123;-66
2022/04/23 00:18:45;;;;;;;9.90;6.07;;;10.10;70.70;;;;;;5034206;28;20576;-66
2022/04/23 00:21:11;;;;;;;9.87;6.20;;;10.00;70.80;;;;;;5033514;28;20140;-66
2022/04/23 00:23:36;;;;;;;14.00;6.60;;;10.00;71.10;;;;;;5034277;28;20072;-66
2022/04/23 00:26:02;;;;;;;9.43;5.77;;;10.00;71.30;;;;;;5050810;28;20135;-66
2022/04/23 00:28:28;;;;;;;12.63;6.97;;;10.00;71.20;;;;;;5046686;28;20039;-66
2022/04/23 00:30:54;;;;;;;9.37;6.30;;;10.00;71.10;;;;;;5043170;28;20109;-66
2022/04/23 00:33:20;;;;;;;14.40;6.87;;;10.00;71.20;;;;;;5017585;28;20029;-65
2022/04/23 00:35:48;;;;;;;13.35;7.28;;;10.00;71.30;;;;;;5044510;28;20036;-66
2022/04/23 00:38:16;;;;;;;12.43;6.93;;;10.00;71.30;;;;;;5049971;28;20477;-66
2022/04/23 00:40:43;;;;;;;7.93;6.72;;;9.90;71.50;;;;;;5049107;28;20052;-65
2022/04/23 00:43:24;;;;;;;11.68;7.28;;;9.80;71.90;;;;;;5044259;28;20095;-66
2022/04/23 00:45:49;;;;;;;12.93;7.57;;;9.80;72.00;;;;;;5041989;28;20909;-66
2022/04/23 00:48:15;;;;;;;9.27;7.03;;;9.80;72.00;;;;;;5038920;28;20375;-66
2022/04/23 00:50:42;;;;;;;13.47;8.23;;;9.80;72.10;;;;;;5046416;28;20424;-66
2022/04/23 00:53:09;;;;;;;12.20;8.18;;;9.80;72.10;;;;;;5030400;28;20570;-66
2022/04/23 00:55:36;;;;;;;11.43;7.93;;;9.80;72.10;;;;;;5023319;28;20071;-66
2022/04/23 00:58:02;;;;;;;12.88;7.57;;;9.70;72.10;;;;;;5050525;28;20037;-66
2022/04/23 01:00:28;;;;;;;10.77;8.40;;;9.60;72.10;;;;;;5028771;28;20048;-66
2022/04/23 01:02:54;;;;;;;12.00;7.95;;;9.60;72.40;;;;;;5035280;28;20044;-66
2022/04/23 01:05:24;;;;;;;13.88;8.95;;;9.60;72.40;;;;;;5019836;28;20049;-66
2022/04/23 01:07:52;;;;;;;15.98;8.50;;;9.50;72.70;;;;;;5051383;28;20154;-66
2022/04/23 01:10:18;;;;;;;11.38;8.15;;;9.50;73.00;;;;;;5028698;28;20071;-66
2022/04/23 01:12:47;;;;;;;15.82;8.25;;;9.50;73.00;;;;;;5032591;28;20083;-66
2022/04/23 01:15:14;;;;;;;14.40;9.48;;;9.40;73.20;;;;;;5044848;28;20040;-66
2022/04/23 01:17:41;;;;;;;12.45;8.85;;;9.40;73.30;;;;;;5040247;28;20449;-66
2022/04/23 01:20:12;;;;;;;13.90;8.70;;;9.40;73.50;;;;;;5029387;28;20420;-65
2022/04/23 01:22:40;;;;;;;14.48;9.10;;;9.40;73.80;;;;;;5033518;28;20045;-66
2022/04/23 01:25:10;;;;;;;13.55;8.82;;;9.30;73.70;;;;;;5028707;28;20040;-66
2022/04/23 01:27:38;;;;;;;12.30;9.02;;;9.30;73.90;;;;;;5034414;28;20044;-67
2022/04/23 01:30:06;;;;;;;16.08;8.70;;;9.30;74.00;;;;;;5048690;28;20048;-66
2022/04/23 01:32:32;;;;;;;12.05;8.52;;;9.20;74.10;;;;;;5034896;28;20055;-66
2022/04/23 01:34:58;;;;;;;12.85;8.48;;;9.20;74.30;;;;;;5044973;28;20036;-66
2022/04/23 01:37:23;;;;;;;10.77;8.70;;;9.20;74.20;;;;;;5045494;28;20512;-66
2022/04/23 01:39:49;;;;;;;15.03;8.40;;;9.20;74.30;;;;;;5006816;28;20048;-66
2022/04/23 01:42:19;;;;;;;12.20;8.97;;;9.20;74.30;;;;;;5025827;28;20062;-66
2022/04/23 01:44:46;;;;;;;11.23;8.68;;;9.20;74.30;;;;;;5043973;28;20500;-66
2022/04/23 01:47:12;;;;;;;13.90;9.25;;;9.10;74.50;;;;;;5036335;28;20052;-66
2022/04/23 01:49:38;;;;;;;16.93;9.73;;;9.10;74.70;;;;;;5033294;28;20063;-66
2022/04/23 01:52:04;;;;;;;13.07;9.23;;;9.20;74.80;;;;;;5048832;28;20043;-66
2022/04/23 01:54:30;;;;;;;15.93;9.60;;;9.10;74.60;;;;;;5019986;28;20283;-66
2022/04/23 01:56:59;;;;;;;12.80;8.93;;;9.10;74.70;;;;;;5046498;28;20037;-66
2022/04/23 01:59:26;;;;;;;14.00;9.52;;;9.10;74.80;;;;;;5048847;28;20071;-66
2022/04/23 02:01:52;;;;;;;17.83;9.50;;;9.00;75.00;;;;;;5035539;28;20041;-66
2022/04/23 02:04:18;;;;;;;16.02;9.95;;;9.00;75.00;;;;;;5032470;28;20674;-66
2022/04/23 02:06:44;;;;;;;14.98;9.15;;;9.00;75.20;;;;;;5046823;28;20036;-65
2022/04/23 02:09:10;;;;;;;13.55;8.80;;;9.00;75.20;;;;;;5024882;28;20461;-66
2022/04/23 02:11:36;;;;;;;15.00;10.00;;;9.00;75.50;;;;;;5035962;28;20048;-66
2022/04/23 02:14:02;;;;;;;16.10;9.90;;;8.90;75.50;;;;;;5028713;28;20518;-66
2022/04/23 02:16:32;;;;;;;15.93;9.85;;;9.00;75.60;;;;;;5044048;28;20075;-66
2022/04/23 02:18:59;;;;;;;14.50;9.43;;;8.90;75.50;;;;;;5043699;28;20128;-66
2022/04/23 02:21:25;;;;;;;15.52;9.90;;;8.90;75.70;;;;;;5030892;28;20040;-66
2022/04/23 02:23:53;;;;;;;15.10;10.20;;;8.90;75.80;;;;;;5028743;28;20051;-66
2022/04/23 02:26:20;;;;;;;15.25;10.50;;;8.90;75.80;;;;;;5042271;28;20120;-66
2022/04/23 02:28:47;;;;;;;14.50;10.80;;;8.90;75.90;;;;;;5047438;28;20044;-66
2022/04/23 02:31:13;;;;;;;18.38;10.07;;;8.90;75.70;;;;;;5026308;28;20040;-66
2022/04/23 02:33:39;;;;;;;16.83;10.65;;;8.80;76.00;;;;;;5035000;28;20504;-66
2022/04/23 02:36:06;;;;;;;20.98;11.27;;;8.80;76.00;;;;;;5044677;28;20077;-66
2022/04/23 02:38:40;;;;;;;15.07;11.20;;;8.80;76.10;;;;;;5032004;28;20044;-66
2022/04/23 02:41:06;;;;;;;15.75;10.95;;;8.80;76.00;;;;;;5017232;28;20037;-66
2022/04/23 02:43:35;;;;;;;16.45;11.73;;;8.70;76.00;;;;;;5013158;28;20056;-66
2022/04/23 02:46:02;;;;;;;16.05;11.48;;;8.70;76.20;;;;;;5025427;28;20428;-66
2022/04/23 02:48:28;;;;;;;15.15;11.65;;;8.70;76.20;;;;;;5021447;28;20057;-66
2022/04/23 02:50:54;;;;;;;17.30;11.45;;;8.70;76.50;;;;;;5044202;28;20039;-66
2022/04/23 02:53:20;;;;;;;17.20;11.47;;;8.70;76.30;;;;;;5045477;28;20040;-66
2022/04/23 02:55:46;;;;;;;15.23;11.63;;;8.70;76.40;;;;;;5034970;28;20032;-66
2022/04/23 02:58:13;;;;;;;18.92;12.23;;;8.70;76.60;;;;;;5022545;28;20635;-66
2022/04/23 03:00:41;;;;;;;17.63;12.10;;;8.70;76.50;;;;;;5050300;28;20482;-66
2022/04/23 03:03:07;;;;;;;18.35;12.65;;;8.70;76.60;;;;;;5040479;28;20048;-66
2022/04/23 03:05:33;;;;;;;16.67;11.90;;;8.80;76.60;;;;;;5044083;28;20492;-65
2022/04/23 03:08:02;;;;;;;14.97;11.57;;;8.70;76.40;;;;;;5047541;28;20047;-66
2022/04/23 03:10:28;;;;;;;14.88;12.20;;;8.60;76.50;;;;;;5045853;28;20043;-66
2022/04/23 03:12:57;;;;;;;16.85;12.43;;;8.70;76.70;;;;;;5044494;28;20045;-66
2022/04/23 03:15:28;;;;;;;19.27;12.88;;;8.70;76.60;;;;;;5025990;28;20095;-66
2022/04/23 03:18:08;;;;;;;17.92;13.50;;;8.70;76.60;;;;;;5051449;28;20536;-66
2022/04/23 03:20:35;;;;;;;18.27;13.02;;;8.60;76.70;;;;;;5062617;28;20567;-66
2022/04/23 03:23:01;;;;;;;15.68;12.45;;;8.60;76.80;;;;;;5051828;28;20492;-66
2022/04/23 03:25:27;;;;;;;21.10;13.57;;;8.70;76.80;;;;;;5051992;28;20087;-66
2022/04/23 03:27:53;;;;;;;20.42;13.20;;;8.70;76.80;;;;;;5015999;28;20048;-66
2022/04/23 03:30:20;;;;;;;17.77;12.33;;;8.70;76.70;;;;;;5030655;28;20063;-66
2022/04/23 03:32:47;;;;;;;19.02;13.15;;;8.60;76.80;;;;;;5047711;28;20496;-66
2022/04/23 03:35:12;;;;;;;18.67;13.38;;;8.60;76.90;;;;;;5018832;28;20505;-66
2022/04/23 03:37:40;;;;;;;17.30;12.43;;;8.70;76.80;;;;;;5041927;28;20374;-66
2022/04/23 03:40:07;;;;;;;18.10;12.45;;;8.70;76.70;;;;;;5051150;28;20094;-66
2022/04/23 03:42:33;;;;;;;16.05;12.95;;;8.70;76.60;;;;;;5051875;28;20109;-66
2022/04/23 03:44:58;;;;;;;16.65;12.15;;;8.70;76.50;;;;;;5015260;28;20170;-66
2022/04/23 03:47:24;;;;;;;16.63;12.20;;;8.70;76.50;;;;;;5029775;28;20127;-66
2022/04/23 03:49:50;;;;;;;19.40;13.23;;;8.70;76.50;;;;;;5051206;28;20048;-66
2022/04/23 03:52:15;;;;;;;19.67;13.10;;;8.70;76.40;;;;;;5034314;28;20037;-66
2022/04/23 03:54:41;;;;;;;16.10;12.03;;;8.70;76.20;;;;;;5034406;28;20447;-66
2022/04/23 03:57:07;;;;;;;18.67;13.07;;;8.70;76.10;;;;;;5020349;28;20048;-66
2022/04/23 03:59:35;;;;;;;17.93;12.83;;;8.70;76.10;;;;;;5041475;28;20044;-66
2022/04/23 04:02:04;;;;;;;17.27;12.75;;;8.70;76.00;;;;;;5033464;28;20037;-66
2022/04/23 04:04:31;;;;;;;18.08;12.13;;;8.70;76.10;;;;;;5039342;28;20060;-66
2022/04/23 04:06:59;;;;;;;15.48;12.02;;;8.70;76.10;;;;;;5028877;28;20048;-66
2022/04/23 04:09:26;;;;;;;16.35;11.75;;;8.70;75.90;;;;;;5004392;28;20199;-66
2022/04/23 04:12:01;;;;;;;20.85;12.07;;;8.70;75.90;;;;;;5049287;28;20079;-66
2022/04/23 04:14:34;;;;;;;15.70;11.90;;;8.70;75.90;;;;;;5026963;28;20033;-66
2022/04/23 04:17:02;;;;;;;16.88;11.50;;;8.70;75.90;;;;;;5035285;28;20170;-66
2022/04/23 04:19:29;;;;;;;18.10;12.18;;;8.70;75.80;;;;;;5028209;28;20057;-66
2022/04/23 04:21:57;;;;;;;15.65;11.38;;;8.70;75.70;;;;;;5044977;28;20056;-66
2022/04/23 04:24:23;;;;;;;15.27;11.07;;;8.70;75.60;;;;;;5029958;28;20068;-66
2022/04/23 04:26:49;;;;;;;18.02;11.75;;;8.80;75.50;;;;;;5027415;28;20394;-66
2022/04/23 04:29:15;;;;;;;13.53;10.60;;;8.80;75.40;;;;;;5036242;28;20041;-66
2022/04/23 04:31:47;;;;;;;15.07;11.50;;;8.70;75.20;;;;;;5031078;28;20049;-66
2022/04/23 04:34:14;;;;;;;15.30;11.10;;;8.70;75.10;;;;;;5031565;28;20048;-66
2022/04/23 04:36:39;;;;;;;16.10;12.02;;;8.70;75.20;;;;;;5047905;28;20037;-66
2022/04/23 04:39:05;;;;;;;16.00;11.57;;;8.60;75.20;;;;;;5007353;28;20461;-66
2022/04/23 04:41:31;;;;;;;16.63;11.52;;;8.70;75.10;;;;;;5008835;28;20140;-66
2022/04/23 04:43:58;;;;;;;15.40;11.40;;;8.70;75.00;;;;;;5020091;28;20262;-66
2022/04/23 04:46:23;;;;;;;15.50;10.52;;;8.60;75.20;;;;;;5017099;28;20056;-66
2022/04/23 04:48:51;;;;;;;14.03;10.20;;;8.70;74.90;;;;;;5024158;28;20037;-66
2022/04/23 04:51:17;;;;;;;14.35;11.32;;;8.70;74.70;;;;;;5034506;28;20547;-66
2022/04/23 04:53:43;;;;;;;13.40;10.77;;;8.70;74.60;;;;;;5036074;28;20081;-66
2022/04/23 04:56:09;;;;;;;16.60;11.20;;;8.70;74.50;;;;;;5028141;28;20033;-66
2022/04/23 04:58:35;;;;;;;13.25;10.32;;;8.70;74.50;;;;;;5030441;28;20056;-66
2022/04/23 05:01:01;;;;;;;16.10;11.93;;;8.80;74.10;;;;;;5039927;28;20053;-66
2022/04/23 05:03:27;;;;;;;14.07;10.95;;;8.80;74.10;;;;;;5025331;28;20045;-66
2022/04/23 05:05:52;;;;;;;17.47;11.00;;;8.80;74.00;;;;;;5034456;28;20037;-66
2022/04/23 05:08:18;;;;;;;14.77;10.30;;;8.80;73.90;;;;;;5029434;28;20041;-66
2022/04/23 05:10:44;;;;;;;12.90;10.87;;;8.80;73.90;;;;;;5016682;28;20577;-66
2022/04/23 05:13:09;;;;;;;13.70;10.37;;;8.80;73.70;;;;;;5004654;28;20340;-66
2022/04/23 05:15:35;;;;;;;11.87;9.77;;;8.90;73.60;;;;;;5009752;28;20068;-66
2022/04/23 05:18:01;;;;;;;12.00;10.03;;;8.90;73.50;;;;;;5024077;28;20041;-66
2022/04/23 05:20:27;;;;;;;12.43;10.07;;;9.00;73.00;;;;;;5053434;28;20052;-66
2022/04/23 05:22:52;;;;;;;14.20;10.77;;;9.00;72.70;;;;;;5023985;28;20417;-66
2022/04/23 05:25:18;;;;;;;14.00;10.13;;;9.10;72.60;;;;;;5045612;28;20290;-66
2022/04/23 05:27:44;;;;;;;13.23;10.23;;;9.10;72.50;;;;;;5033835;28;20049;-66
2022/04/23 05:30:10;;;;;;;11.50;9.73;;;9.10;72.00;;;;;;4999400;28;20048;-66
2022/04/23 05:32:36;;;;;;;11.80;10.10;;;9.20;71.80;;;;;;5029098;28;20059;-66
2022/04/23 05:35:02;;;;;;;12.57;9.87;;;9.20;71.70;;;;;;5026187;28;20033;-66
2022/04/23 05:37:27;;;;;;;12.85;10.00;;;9.30;71.70;;;;;;5018301;28;20042;-66
2022/04/23 05:39:53;;;;;;;14.40;10.13;;;9.30;71.50;;;;;;5032404;28;20037;-67
2022/04/23 05:42:19;;;;;;;13.80;10.23;;;9.30;71.60;;;;;;5020772;28;20042;-66
2022/04/23 05:44:44;;;;;;;13.53;10.37;;;9.30;71.50;;;;;;5026338;28;20508;-67
2022/04/23 05:47:10;;;;;;;12.27;10.37;;;9.40;71.20;;;;;;5028404;28;20124;-66
2022/04/23 05:49:39;;;;;;;13.00;9.47;;;9.40;71.10;;;;;;5025960;28;20041;-67
2022/04/23 05:52:05;;;;;;;12.63;9.43;;;9.50;70.60;;;;;;5024590;28;20048;-66
2022/04/23 05:54:31;;;;;;;12.68;11.00;;;9.50;70.40;;;;;;5027791;28;20045;-67
2022/04/23 05:56:57;;;;;;;12.88;10.05;;;9.60;70.30;;;;;;5039359;28;20102;-66
2022/04/23 05:59:25;;;;;;;13.67;10.20;;;9.60;70.30;;;;;;5027362;28;20033;-66
2022/04/23 06:01:51;;;;;;;12.90;9.93;;;9.70;69.80;;;;;;5045491;28;20044;-67
2022/04/23 06:04:16;;;;;;;11.83;9.97;;;9.80;69.70;;;;;;5017685;28;20493;-67
2022/04/23 06:06:42;;;;;;;13.07;10.40;;;9.80;69.90;;;;;;5041915;28;20551;-66
2022/04/23 06:09:08;;;;;;;14.23;11.20;;;9.80;69.60;;;;;;5044565;28;20414;-66
2022/04/23 06:11:34;;;;;;;13.93;10.30;;;9.90;69.40;;;;;;5027993;28;20048;-67
2022/04/23 06:14:01;;;;;;;12.90;9.97;;;10.00;69.20;;;;;;5024436;28;20127;-66
2022/04/23 06:16:26;;;;;;;15.23;9.90;;;10.00;69.20;;;;;;5043804;28;20426;-66
2022/04/23 06:18:52;;;;;;;11.83;9.40;;;10.10;68.60;;;;;;5010083;28;20053;-66
2022/04/23 06:21:18;;;;;;;12.47;10.13;;;10.20;68.40;;;;;;5040608;28;20297;-67
2022/04/23 06:23:43;;;;;;;13.73;10.13;;;10.20;68.40;;;;;;5029573;28;20578;-67
2022/04/23 06:26:09;;;;;;;14.23;9.80;;;10.30;67.70;;;;;;5024659;28;20513;-67
2022/04/23 06:28:35;;;;;;;12.90;9.60;;;10.40;67.80;;;;;;5026070;28;20047;-67
2022/04/23 06:31:01;;;;;;;12.80;9.90;;;10.50;67.50;;;;;;5042510;28;20078;-67
2022/04/23 06:33:26;;;;;;;12.70;10.13;;;10.50;67.70;;;;;;5044548;28;20052;-67
2022/04/23 06:35:52;;;;;;;11.30;9.53;;;10.70;67.40;;;;;;5017033;28;20551;-67
2022/04/23 06:38:18;;;;;;;13.00;10.00;;;10.80;66.70;;;;;;5019477;28;20580;-67
2022/04/23 06:40:43;;;;;;;12.83;9.50;;;11.20;64.90;;;;;;5011781;28;20051;-67
2022/04/23 06:43:09;;;;;;;12.17;10.00;;;11.60;64.00;;;;;;5029264;28;20045;-67
2022/04/23 06:45:35;;;;;;;13.23;9.93;;;11.90;62.80;;;;;;5041812;28;20053;-67
2022/04/23 06:48:04;;;;;;;11.80;9.43;;;12.00;62.60;;;;;;5033329;28;20133;-67
2022/04/23 06:50:35;;;;;;;11.43;9.93;;;11.70;63.10;;;;;;5019669;28;20057;-67
2022/04/23 06:53:01;;;;;;;12.30;9.52;;;11.50;63.50;;;;;;5026235;28;20120;-67
2022/04/23 06:55:28;;;;;;;13.40;9.82;;;11.40;63.50;;;;;;5036862;28;20037;-67
2022/04/23 06:57:54;;;;;;;13.70;10.55;;;11.40;63.70;;;;;;5021854;28;20080;-67
2022/04/23 07:00:22;;;;;;;12.80;10.23;;;11.30;63.30;;;;;;5027869;28;20131;-67
2022/04/23 07:02:49;;;;;;;14.00;10.50;;;11.30;63.60;;;;;;5033746;28;20171;-66
2022/04/23 07:05:15;;;;;;;14.80;10.32;;;11.30;63.30;;;;;;5040050;28;20041;-67
2022/04/23 07:07:41;;;;;;;14.17;10.40;;;11.20;64.20;;;;;;5028067;28;20683;-67
2022/04/23 07:10:07;;;;;;;15.33;11.13;;;11.30;63.90;;;;;;5042326;28;20395;-67
2022/04/23 07:12:33;;;;;;;13.40;10.57;;;11.30;63.50;;;;;;5028340;28;20440;-67
2022/04/23 07:15:00;;;;;;;12.47;10.20;;;11.30;63.80;;;;;;5027068;28;20044;-67
2022/04/23 07:17:26;;;;;;;11.90;10.00;;;11.30;64.00;;;;;;5012414;28;20314;-67
2022/04/23 07:19:53;;;;;;;14.83;10.43;;;11.40;64.20;;;;;;5022382;28;20087;-67
2022/04/23 07:22:20;;;;;;;13.20;10.77;;;11.50;63.60;;;;;;5028347;28;20037;-67
2022/04/23 07:24:48;;;;;;;13.57;10.57;;;11.60;62.90;;;;;;5038382;28;20042;-67
2022/04/23 07:27:13;;;;;;;12.98;10.48;;;11.60;63.40;;;;;;5007539;28;20382;-67
2022/04/23 07:29:39;;;;;;;11.97;10.23;;;11.70;63.00;;;;;;5039341;28;20043;-67
2022/04/23 07:32:05;;;;;;;13.67;10.73;;;11.80;63.10;;;;;;5025398;28;20144;-67
2022/04/23 07:37:34;;;;;;;13.98;10.32;;;11.90;62.00;;;;;;5028605;28;20052;-66
2022/04/23 07:40:12;;;;;;;13.27;11.02;;;12.00;61.70;;;;;;5011338;28;20091;-67
2022/04/23 07:42:38;;;;;;;12.27;10.45;;;12.10;61.30;;;;;;5036077;28;20033;-67
2022/04/23 07:45:04;;;;;;;14.23;10.43;;;12.00;61.80;;;;;;5020312;28;20051;-67
2022/04/23 07:47:30;;;;;;;15.02;11.43;;;12.10;61.40;;;;;;5036180;28;20034;-67
2022/04/23 07:49:56;;;;;;;13.50;10.60;;;12.30;60.40;;;;;;5032353;28;20494;-67
2022/04/23 07:52:21;;;;;;;13.23;11.10;;;12.30;60.10;;;;;;5001661;28;20985;-67
2022/04/23 07:54:48;;;;;;;13.80;10.23;;;12.40;59.70;;;;;;5041800;28;20041;-67
2022/04/23 07:57:20;;;;;;;16.17;10.90;;;12.40;59.80;;;;;;4990966;28;20545;-67
2022/04/23 07:59:45;;;;;;;13.45;10.65;;;12.60;59.70;;;;;;5036320;28;20497;-67
2022/04/23 08:02:11;;;;;;;12.60;10.00;;;12.70;59.40;;;;;;5020811;28;20080;-67
2022/04/23 08:04:37;;;;;;;15.50;10.40;;;12.80;57.70;;;;;;5022782;28;20036;-67
2022/04/23 08:07:03;;;;;;;14.70;10.27;;;12.80;58.00;;;;;;5045539;28;20061;-67
2022/04/23 08:09:29;;;;;;;12.35;9.98;;;12.90;58.10;;;;;;5028060;28;20040;-67
2022/04/23 08:11:55;;;;;;;12.63;9.90;;;13.00;58.60;;;;;;5043273;28;20040;-67
2022/04/23 08:14:20;;;;;;;14.03;9.50;;;13.20;58.00;;;;;;5002590;28;20120;-67
2022/04/23 08:16:48;;;;;;;12.77;9.90;;;13.20;56.20;;;;;;5046804;28;20298;-67
2022/04/23 08:19:14;;;;;;;12.85;8.98;;;13.30;56.30;;;;;;5028089;28;20053;-67
2022/04/23 08:21:40;;;;;;;13.45;9.63;;;13.40;56.00;;;;;;5034903;28;20234;-67
2022/04/23 08:24:06;;;;;;;12.50;9.80;;;13.50;55.80;;;;;;5034479;28;20124;-67
2022/04/23 08:26:32;;;;;;;12.53;9.80;;;13.60;55.20;;;;;;5030953;28;20051;-67
2022/04/23 08:31:41;;;;;;;12.50;9.20;;;13.60;54.80;;;;;;5040854;28;20122;-67
2022/04/23 08:34:07;;;;;;;10.17;9.07;;;13.70;55.30;;;;;;5031040;28;20773;-68
2022/04/23 08:36:37;;;;;;;12.60;9.10;;;13.80;54.50;;;;;;5040577;28;20029;-68
2022/04/23 08:39:06;;;;;;;11.15;9.30;;;13.80;54.00;;;;;;5033312;28;20067;-68
2022/04/23 08:41:35;;;;;;;13.67;9.70;;;13.80;54.00;;;;;;5044631;28;20063;-66
2022/04/23 08:44:05;;;;;;;12.57;10.03;;;13.80;53.80;;;;;;5029422;28;20289;-66
2022/04/23 08:46:36;;;;;;;10.23;8.90;;;13.90;54.00;;;;;;5026810;28;20291;-65
2022/04/23 08:49:09;;;;;;;13.20;10.20;;;13.90;54.10;;;;;;5045643;28;20292;-66
2022/04/23 08:51:35;;;;;;;11.37;10.27;;;13.90;54.40;;;;;;5025004;28;20405;-65
2022/04/23 08:54:07;;;;;;;13.00;10.37;;;14.00;54.10;;;;;;5044093;28;20287;-66
2022/04/23 08:56:35;;;;;;;13.00;9.40;;;14.00;54.10;;;;;;5024763;28;20280;-65
2022/04/23 08:59:00;;;;;;;13.80;9.50;;;14.10;54.60;;;;;;5026728;28;20291;-66
2022/04/23 09:01:31;;;;;;;12.00;9.73;;;14.20;53.70;;;;;;5026093;28;20337;-66
2022/04/23 09:03:57;;;;;;;11.43;10.03;;;14.30;53.80;;;;;;5025570;28;20041;-66
2022/04/23 09:06:27;;;;;;;10.73;9.37;;;14.40;53.80;;;;;;5022889;28;20311;-65
2022/04/23 09:09:16;;;;;;;11.67;9.50;;;14.50;52.60;;;;;;5038158;28;20695;-65
2022/04/23 09:11:49;;;;;;;11.67;9.70;;;14.40;53.10;;;;;;5041213;28;20295;-66
2022/04/23 09:14:30;;;;;;;10.70;9.60;;;14.50;53.20;;;;;;5042270;28;20427;-66
2022/04/23 09:25:35;;;;;;;12.77;9.82;;;14.80;52.60;;;;;;5045204;28;20049;-66
2022/04/23 09:28:13;;;;;;;13.33;10.40;;;14.90;51.80;;;;;;5022912;28;20132;-66
2022/04/23 09:30:39;;;;;;;12.03;9.90;;;15.00;50.70;;;;;;5040190;28;20296;-65
2022/04/23 09:33:04;;;;;;;11.83;9.30;;;15.00;51.40;;;;;;5039589;28;20284;-65
2022/04/23 09:35:31;;;;;;;9.70;8.63;;;15.00;51.40;;;;;;5039213;28;20383;-66
2022/04/23 09:38:14;;;;;;;11.53;9.23;;;15.20;51.00;;;;;;5041322;28;20302;-66
2022/04/23 09:40:39;;;;;;;12.90;9.03;;;15.30;50.80;;;;;;5040528;28;20048;-66
2022/04/23 09:43:09;;;;;;;10.40;8.87;;;15.40;49.70;;;;;;5007513;28;20280;-66
2022/04/23 09:45:41;;;;;;;10.70;9.37;;;15.50;49.80;;;;;;5023188;28;20048;-66
2022/04/23 09:48:16;;;;;;;13.17;9.40;;;15.60;49.00;;;;;;5034220;28;20287;-66
2022/04/23 09:50:44;;;;;;;13.95;8.82;;;15.70;49.40;;;;;;5038883;28;20357;-66
2022/04/23 09:53:12;;;;;;;10.57;9.03;;;15.80;49.40;;;;;;5027185;28;20037;-66
2022/04/23 09:55:38;;;;;;;13.97;8.47;;;15.90;48.70;;;;;;5009680;28;20325;-66
2022/04/23 09:58:08;;;;;;;12.57;9.40;;;15.90;47.50;;;;;;5039394;28;20309;-66
2022/04/23 10:00:36;;;;;;;11.87;9.17;;;15.80;47.50;;;;;;5040345;28;20378;-66
2022/04/23 10:03:07;;;;;;;11.73;9.47;;;15.90;47.30;;;;;;5042938;28;20430;-66
2022/04/23 10:05:38;;;;;;;13.67;9.27;;;15.80;47.80;;;;;;5038737;28;20294;-66
2022/04/23 10:08:16;;;;;;;10.10;8.97;;;15.90;46.80;;;;;;5025385;28;20378;-66
2022/04/23 10:10:48;;;;;;;10.70;9.23;;;15.90;47.90;;;;;;5039217;28;20304;-66
2022/04/23 10:13:16;;;;;;;12.47;9.43;;;15.90;48.10;;;;;;5041003;28;20268;-66
2022/04/23 10:15:46;;;;;;;15.10;9.50;;;16.00;47.70;;;;;;5037796;28;20288;-66
2022/04/23 10:18:13;;;;;;;11.20;8.77;;;16.00;47.30;;;;;;5036531;28;20840;-66
2022/04/23 10:20:40;;;;;;;11.60;8.67;;;16.10;46.80;;;;;;5009099;28;20368;-66
2022/04/23 10:23:13;;;;;;;15.50;9.30;;;16.10;47.00;;;;;;5045737;28;20383;-66
2022/04/23 10:25:49;;;;;;;10.53;9.43;;;16.10;47.00;;;;;;5026343;28;20290;-66
2022/04/23 10:28:19;;;;;;;11.07;8.57;;;16.20;46.60;;;;;;5046272;28;20322;-66
2022/04/23 10:30:49;;;;;;;9.30;8.07;;;16.20;47.10;;;;;;5033945;28;20370;-66
2022/04/23 10:33:28;;;;;;;9.77;8.77;;;16.30;47.10;;;;;;5041559;28;20295;-67
2022/04/23 10:36:08;;;;;;;12.73;8.70;;;16.30;46.90;;;;;;5029865;28;20278;-68
2022/04/23 10:38:38;;;;;;;10.40;8.50;;;16.40;46.30;;;;;;5012126;28;20297;-68
2022/04/23 10:41:05;;;;;;;12.83;8.70;;;16.40;47.40;;;;;;5027071;28;20967;-68
2022/04/23 10:43:31;;;;;;;10.37;8.43;;;16.60;46.10;;;;;;5048314;28;20306;-68
2022/04/23 10:45:57;;;;;;;12.97;9.27;;;16.70;46.40;;;;;;5042312;28;20649;-68
2022/04/23 10:48:29;;;;;;;10.10;9.10;;;16.70;46.10;;;;;;5039127;28;20604;-68
2022/04/23 10:51:05;;;;;;;14.17;9.57;;;16.70;45.90;;;;;;5019749;28;20309;-68
2022/04/23 10:53:37;;;;;;;13.23;9.07;;;16.70;46.80;;;;;;5021506;28;20676;-68
2022/04/23 10:56:13;;;;;;;13.67;9.50;;;16.80;46.70;;;;;;5038919;28;20610;-68
2022/04/23 10:58:40;;;;;;;14.03;9.07;;;16.90;45.40;;;;;;5028662;28;20500;-68
2022/04/23 11:01:27;;;;;;;11.60;9.93;;;16.80;45.50;;;;;;5012334;28;20275;-66
2022/04/23 11:03:53;;;;;;;10.97;9.87;;;16.80;46.00;;;;;;5042580;28;20771;-66
2022/04/23 11:12:19;;;;;;;15.67;9.97;;;16.80;46.70;;;;;;5048272;28;20326;-67
2022/04/23 11:14:46;;;;;;;12.03;9.60;;;16.90;45.90;;;;;;5053539;28;20379;-67
2022/04/23 11:17:20;;;;;;;13.93;9.40;;;17.00;45.40;;;;;;5027171;28;20318;-67
2022/04/23 11:19:50;;;;;;;11.37;9.70;;;17.10;45.30;;;;;;5029917;28;20310;-67
2022/04/23 11:22:16;;;;;;;11.67;9.80;;;17.10;45.20;;;;;;5020978;28;20656;-67
2022/04/23 11:24:45;;;;;;;13.83;10.10;;;17.10;46.00;;;;;;5014289;28;20290;-67
2022/04/23 11:27:23;;;;;;;13.30;9.77;;;17.20;45.10;;;;;;5044247;28;20288;-67
2022/04/23 11:29:56;;;;;;;10.50;9.50;;;17.30;44.90;;;;;;5036669;28;20808;-67
2022/04/23 11:32:29;;;;;;;12.20;9.70;;;17.30;45.00;;;;;;5029656;28;20282;-67
2022/04/23 11:35:06;;;;;;;10.40;9.23;;;17.30;45.30;;;;;;5003245;28;20625;-67
2022/04/23 11:37:39;;;;;;;12.20;9.87;;;17.30;45.40;;;;;;5037431;28;20381;-67
2022/04/23 11:40:13;;;;;;;12.20;9.87;;;17.40;45.30;;;;;;5028986;28;20310;-67
2022/04/23 11:42:46;;;;;;;12.07;9.48;;;17.40;45.50;;;;;;5049738;28;20277;-67
2022/04/23 11:45:14;;;;;;;10.27;9.23;;;17.40;45.00;;;;;;5050544;28;20040;-67
2022/04/23 11:47:40;;;;;;;11.90;9.47;;;17.50;44.70;;;;;;5066923;28;20340;-67
2022/04/23 11:50:12;;;;;;;10.67;8.93;;;17.50;44.80;;;;;;5046919;28;20846;-67
2022/04/23 11:52:42;;;;;;;10.50;9.50;;;17.60;44.70;;;;;;5032437;28;20345;-67
2022/04/23 11:55:22;;;;;;;12.20;9.97;;;17.60;43.70;;;;;;5025661;28;20278;-67
2022/04/23 11:58:01;;;;;;;11.57;9.77;;;17.70;44.00;;;;;;5045579;28;20282;-67
2022/04/23 12:00:28;;;;;;;10.90;9.10;;;17.80;44.10;;;;;;5029031;28;20326;-67
2022/04/23 12:02:54;;;;;;;11.40;8.47;;;17.90;43.50;;;;;;5025206;28;20862;-67
2022/04/23 12:05:25;;;;;;;10.77;9.07;;;18.00;42.90;;;;;;5041605;28;20318;-67
2022/04/23 12:07:51;;;;;;;11.23;9.10;;;18.00;42.60;;;;;;5022456;28;20278;-67
2022/04/23 12:10:26;;;;;;;11.00;9.43;;;18.00;42.30;;;;;;5026515;28;20302;-67
2022/04/23 12:12:52;;;;;;;13.10;8.35;;;18.00;43.30;;;;;;5042307;28;20283;-67
2022/04/23 12:15:21;;;;;;;9.47;8.53;;;18.10;42.30;;;;;;5042252;28;20036;-67
2022/04/23 12:17:50;;;;;;;10.30;9.27;;;18.10;42.70;;;;;;5041871;28;20290;-67
2022/04/23 12:20:19;;;;;;;10.23;9.07;;;18.10;42.50;;;;;;5029391;28;20364;-67
2022/04/23 12:23:08;;;;;;;10.23;8.50;;;18.10;41.70;;;;;;5050070;28;20382;-67
2022/04/23 12:25:35;;;;;;;10.23;8.73;;;18.20;42.30;;;;;;5051160;28;20323;-67
2022/04/23 12:42:04;;;;;;;10.00;7.37;;;18.40;40.90;;;;;;5038477;28;20290;-67
2022/04/23 12:44:42;;;;;;;7.67;6.80;;;18.50;40.00;;;;;;5042596;28;20317;-67
2022/04/23 12:47:13;;;;;;;10.77;8.17;;;18.50;40.00;;;;;;5039237;28;20370;-67
2022/04/23 12:49:51;;;;;;;7.77;6.97;;;18.60;39.60;;;;;;5044866;28;20282;-67
2022/04/23 12:52:22;;;;;;;8.50;7.60;;;18.60;41.10;;;;;;5013672;28;20314;-67
2022/04/23 12:55:14;;;;;;;7.73;6.93;;;18.70;40.80;;;;;;5045251;28;20793;-67
2022/04/23 12:57:42;;;;;;;8.43;7.10;;;18.80;38.80;;;;;;5044986;28;20305;-67
2022/04/23 13:00:11;;;;;;;9.67;6.93;;;18.80;39.10;;;;;;5048052;28;20635;-67
2022/04/23 13:02:38;;;;;;;8.27;7.03;;;18.80;39.90;;;;;;5041156;28;20655;-67
2022/04/23 13:05:06;;;;;;;9.83;7.10;;;18.90;39.20;;;;;;5040646;28;20279;-67
2022/04/23 13:10:17;;;;;;;8.65;6.78;;;18.80;39.00;;;;;;5040360;28;20356;-67
2022/04/23 13:12:43;;;;;;;10.00;7.20;;;18.90;38.40;;;;;;5047472;28;20914;-67
2022/04/23 13:15:09;;;;;;;7.50;6.73;;;18.90;38.80;;;;;;5026197;28;20119;-67
2022/04/23 13:17:38;;;;;;;9.47;6.33;;;18.90;37.60;;;;;;5042232;28;20094;-67
2022/04/23 13:20:06;;;;;;;7.43;6.53;;;18.80;38.50;;;;;;5031666;28;20295;-67